Vorkuta, Russia
Current Conditions -  °F | °C
As of 10:30 AM on Thursday 23 Oct 2014 (Local Time) from USHH Reporting Station
Broken Clouds Broken Clouds  
Wind Chill: -4°   Ceiling: 8000
Heat Index:   Visibility: 6mi
Dew Point:   Wind: 9mph
Humidity: 85%   Direction: 50°NE
Pressure: 29.94"   Gusts: 16mph
Location:  67.5°N, 64°E
Report Text: USHH 230730Z 05004G07MPS 9999 FEW023 BKN080 M13/M15 Q1014 TEMPOBKN010 RMK QFE757 06////60
Loading
Personal Weather Stations






























Interactive Weather Map
Tropical Storm Tracking
New forecast layout! Learn more

10-Day Weather Forecast

Advertisements
Track Severe Weather on mobile